Paradise — 3FOB5 — position and weather

sailwx.info

Track history (hours):
 
Tides and Currents Weather Stations Pressure Air Temp Water Temp Dewpoint Dewpoint Depression Visibility Wind Speed Wind Dir Waves Ship Positions

Paradise

Operator: Carnival Cruise Lines

Last reported at 2017-Jun-24 22:31 UTC. Time now 2017-Jun-26 10:36 UTC.
Position N 27°38' W 082°38'.

Type: Ship. MMSI: 355833000.

Date/timePositionNaut miles runAvg speedWind from/ knotsBaromVisibWave heightAir tempDewpointWater temp
2017-Jun-24 22:31N 27°38' W 082°38'416.6
2017-Jun-24 22:18N 27°41' W 082°35'515.9
2017-Jun-24 22:00N 27°44' W 082°32'713.8
2017-Jun-24 21:30N 27°49' W 082°27'611.5
2017-Jun-24 21:00N 27°55' W 082°27'2 3.3
2017-Jun-24 20:28N 27°57' W 082°27'0 0.0
2017-Jun-24 19:58N 27°57' W 082°27'0 0.0
2017-Jun-24 19:31N 27°57' W 082°27'0 0.0
2017-Jun-24 19:00N 27°57' W 082°27'0 0.0
2017-Jun-24 18:30N 27°57' W 082°27'0 0.0
2017-Jun-24 18:00N 27°57' W 082°27'0 0.0
2017-Jun-24 17:30N 27°57' W 082°27'0 0.0
2017-Jun-24 16:59N 27°57' W 082°27'0 0.0
2017-Jun-24 16:29N 27°57' W 082°27'0 0.0
2017-Jun-24 15:59N 27°57' W 082°27'0 0.0
2017-Jun-24 15:29N 27°57' W 082°27'0 0.0
2017-Jun-24 14:59N 27°57' W 082°27'0 0.0
2017-Jun-24 13:58N 27°57' W 082°27'0 0.0
2017-Jun-24 13:28N 27°57' W 082°27'0 0.0
2017-Jun-24 12:58N 27°57' W 082°27'0 0.0
2017-Jun-24 12:30N 27°57' W 082°27'0 0.0
2017-Jun-24 12:00N 27°57' W 082°27'0 0.0
2017-Jun-24 11:30N 27°57' W 082°27'1 1.4
2017-Jun-24 11:00N 27°56' W 082°27'2 4.0
2017-Jun-24 10:30N 27°54' W 082°26'5 9.3
2017-Jun-24 10:00N 27°49' W 082°27'612.3
2017-Jun-24 09:30N 27°45' W 082°32'714.2
2017-Jun-24 09:00N 27°39' W 082°37'48615.7
2017-Jun-23 02:06N 20°36' W 086°58'218.5
2017-Jun-23 02:00N 20°34' W 086°59'510.6
2017-Jun-23 01:30N 20°29' W 086°59'0 0.5
2017-Jun-23 00:58N 20°29' W 086°59'0 0.0
2017-Jun-23 00:28N 20°29' W 086°59'0 0.0
2017-Jun-22 23:58N 20°29' W 086°59'0 0.0
2017-Jun-22 23:28N 20°29' W 086°59'0 0.0
2017-Jun-22 23:00N 20°29' W 086°59'0 0.0
2017-Jun-22 22:30N 20°29' W 086°59'0 0.0
2017-Jun-22 22:00N 20°29' W 086°59'0 0.0
2017-Jun-22 21:30N 20°29' W 086°59'0 0.0
2017-Jun-22 21:00N 20°29' W 086°59'0 0.0
2017-Jun-22 20:26N 20°29' W 086°59'0 0.0
2017-Jun-22 19:59N 20°29' W 086°59'0 0.0
2017-Jun-22 19:29N 20°29' W 086°59'0 0.0
2017-Jun-22 18:59N 20°29' W 086°59'0 0.0
2017-Jun-22 18:29N 20°29' W 086°59'0 0.0
2017-Jun-22 17:58N 20°29' W 086°59'0 0.0
2017-Jun-22 17:28N 20°29' W 086°59'0 0.0
2017-Jun-22 16:55N 20°29' W 086°59'0 0.0
2017-Jun-22 16:28N 20°29' W 086°59'0 0.0
2017-Jun-22 15:57N 20°29' W 086°59'0 0.0
2017-Jun-22 15:30N 20°29' W 086°59'2 3.4
2017-Jun-22 15:00N 20°29' W 087°00'4715.7
2017-Jun-22 12:00N 19°42' W 087°00'92 2.6 130 / 251012.010.8 28.023.929.0
2017-Jun-21 00:00N 20°30' W 085°36'20717.3 150 / 351010.010.8 28.025.328.0
2017-Jun-20 12:00N 23°48' W 084°30'1918.8 120 / 401010.010.8 28.025.328.0
2017-Jun-20 11:00N 24°06' W 084°24'15419.2 140 / 451010.010.8 28.025.328.0
2017-Jun-20 03:00N 26°30' W 083°24'7816.8 100 / 301014.2 5.4 27.025.728.0
2017-Jun-19 22:21N 27°37' W 082°39'515.7
2017-Jun-19 22:00N 27°41' W 082°35'714.1
2017-Jun-19 21:31N 27°47' W 082°31'612.6
2017-Jun-19 21:01N 27°52' W 082°27'4 7.5
2017-Jun-19 20:31N 27°56' W 082°27'1 2.0
2017-Jun-19 19:59N 27°57' W 082°27'0 0.0
2017-Jun-19 19:29N 27°57' W 082°27'0 0.0
2017-Jun-19 18:59N 27°57' W 082°27'0 0.0
2017-Jun-19 18:29N 27°57' W 082°27'0 0.0
2017-Jun-19 17:59N 27°57' W 082°27'0 0.0
2017-Jun-19 17:29N 27°57' W 082°27'0 0.0
2017-Jun-19 16:59N 27°57' W 082°27'0 0.0
2017-Jun-19 16:28N 27°57' W 082°27'0 0.0
2017-Jun-19 15:58N 27°57' W 082°27'0 0.0
2017-Jun-19 15:28N 27°57' W 082°27'0 0.0
2017-Jun-19 14:58N 27°57' W 082°27'0 0.0
2017-Jun-19 14:00N 27°57' W 082°27'0 0.0
2017-Jun-19 13:30N 27°57' W 082°27'0 0.0
2017-Jun-19 13:00N 27°57' W 082°27'0 0.0
2017-Jun-19 12:30N 27°57' W 082°27'0 0.0
2017-Jun-19 12:00N 27°57' W 082°27'0 0.4
2017-Jun-19 11:31N 27°56' W 082°27'2 3.6
2017-Jun-19 11:01N 27°55' W 082°27'510.3
2017-Jun-19 10:31N 27°50' W 082°27'611.1
2017-Jun-19 10:01N 27°46' W 082°31'713.7
2017-Jun-19 09:30N 27°40' W 082°36'5910.8
2017-Jun-19 04:00N 26°54' W 083°18'4711.8 160 / 201014.0 5.4 28.023.928.0
2017-Jun-19 00:00N 26°12' W 083°42'6012.1 160 / 251012.010.8 27.022.828.0
2017-Jun-18 19:00N 25°18' W 084°12'5313.2 120 / 281012.010.8 29.025.027.0
2017-Jun-18 15:00N 24°30' W 084°36'27116.6 100 / 311011.9 5.4 29.025.028.0
2017-Jun-17 22:43N 20°33' W 086°58'315.3
2017-Jun-17 22:30N 20°30' W 086°59'2 2.8
2017-Jun-17 21:56N 20°29' W 086°59'0 0.0
2017-Jun-17 21:29N 20°29' W 086°59'0 0.0
2017-Jun-17 20:59N 20°29' W 086°59'0 0.0
2017-Jun-17 20:28N 20°29' W 086°59'0 0.0
2017-Jun-17 19:58N 20°29' W 086°59'0 0.0
2017-Jun-17 19:28N 20°29' W 086°59'0 0.0
2017-Jun-17 18:58N 20°29' W 086°59'0 0.0
2017-Jun-17 18:30N 20°29' W 086°59'0 0.0
2017-Jun-17 18:00N 20°29' W 086°59'0 0.0
2017-Jun-17 17:30N 20°29' W 086°59'0 0.0
2017-Jun-17 17:00N 20°29' W 086°59'0 0.0
2017-Jun-17 16:27N 20°29' W 086°59'0 0.0
2017-Jun-17 15:59N 20°29' W 086°59'0 0.0
2017-Jun-17 15:26N 20°29' W 086°59'0 0.0
2017-Jun-17 14:59N 20°29' W 086°59'0 0.0
2017-Jun-17 14:29N 20°29' W 086°59'0 0.0
2017-Jun-17 13:25N 20°29' W 086°59'0 0.0
2017-Jun-17 12:58N 20°29' W 086°59'0 0.0
2017-Jun-17 12:28N 20°29' W 086°59'0 0.0
2017-Jun-17 11:58N 20°29' W 086°59'0 0.8
2017-Jun-17 11:30N 20°29' W 086°59'4 8.6
2017-Jun-17 11:01N 20°33' W 086°57'35713.2
2017-Jun-16 08:00N 25°48' W 083°54'12914.8 190 / 81016.7 5.4 27.024.326.0
2017-Jun-15 23:19N 27°38' W 082°39'515.7
2017-Jun-15 23:01N 27°41' W 082°35'714.3
2017-Jun-15 22:31N 27°47' W 082°31'713.1
2017-Jun-15 22:01N 27°52' W 082°27'4 8.0
2017-Jun-15 21:31N 27°56' W 082°27'0 0.6
2017-Jun-15 20:58N 27°57' W 082°27'0 0.0
2017-Jun-15 20:28N 27°57' W 082°27'0 0.0
2017-Jun-15 19:58N 27°57' W 082°27'0 0.0
2017-Jun-15 19:28N 27°57' W 082°27'0 0.0
2017-Jun-15 18:58N 27°57' W 082°27'0 0.0
2017-Jun-15 18:30N 27°57' W 082°27'0 0.0
2017-Jun-15 18:00N 27°57' W 082°27'0 0.0
2017-Jun-15 17:27N 27°57' W 082°27'0 0.0
2017-Jun-15 17:00N 27°57' W 082°27'0 0.0
2017-Jun-15 16:26N 27°57' W 082°27'0 0.0
2017-Jun-15 15:59N 27°57' W 082°27'0 0.0
2017-Jun-15 15:29N 27°57' W 082°27'0 0.0
2017-Jun-15 14:59N 27°57' W 082°27'0 0.0
2017-Jun-15 13:58N 27°57' W 082°27'0 0.0
2017-Jun-15 13:28N 27°57' W 082°27'0 0.0
2017-Jun-15 12:58N 27°57' W 082°27'0 0.0
2017-Jun-15 12:28N 27°57' W 082°27'0 0.0
2017-Jun-15 12:00N 27°57' W 082°27'0 0.4
2017-Jun-15 11:30N 27°57' W 082°27'1 2.0
2017-Jun-15 11:00N 27°56' W 082°27'3 6.3
2017-Jun-15 10:30N 27°52' W 082°26'611.5
2017-Jun-15 10:00N 27°48' W 082°30'612.7
2017-Jun-15 09:30N 27°42' W 082°33'815.2
2017-Jun-15 09:00N 27°37' W 082°40'1015.7
2017-Jun-15 08:21N 27°36' W 082°52'515.0
2017-Jun-15 08:00N 27°36' W 082°57'  
Track history (hours):
 
Tides and Currents Weather Stations Pressure Air Temp Water Temp Dewpoint Dewpoint Depression Visibility Wind Speed Wind Dir Waves Ship Positions

Paradise

Operator: Carnival Cruise Lines

Last reported at 2017-Jun-24 22:31 UTC. Time now 2017-Jun-26 10:36 UTC.
Position N 27°38' W 082°38'.

Type: Ship. MMSI: 355833000.

Date/timePositionNaut miles runAvg speedWind from/ knotsBaromVisibWave heightAir tempDewpointWater temp
2017-Jun-24 22:31N 27°38' W 082°38'416.6
2017-Jun-24 22:18N 27°41' W 082°35'515.9
2017-Jun-24 22:00N 27°44' W 082°32'713.8
2017-Jun-24 21:30N 27°49' W 082°27'611.5
2017-Jun-24 21:00N 27°55' W 082°27'2 3.3
2017-Jun-24 20:28N 27°57' W 082°27'0 0.0
2017-Jun-24 19:58N 27°57' W 082°27'0 0.0
2017-Jun-24 19:31N 27°57' W 082°27'0 0.0
2017-Jun-24 19:00N 27°57' W 082°27'0 0.0
2017-Jun-24 18:30N 27°57' W 082°27'0 0.0
2017-Jun-24 18:00N 27°57' W 082°27'0 0.0
2017-Jun-24 17:30N 27°57' W 082°27'0 0.0
2017-Jun-24 16:59N 27°57' W 082°27'0 0.0
2017-Jun-24 16:29N 27°57' W 082°27'0 0.0
2017-Jun-24 15:59N 27°57' W 082°27'0 0.0
2017-Jun-24 15:29N 27°57' W 082°27'0 0.0
2017-Jun-24 14:59N 27°57' W 082°27'0 0.0
2017-Jun-24 13:58N 27°57' W 082°27'0 0.0
2017-Jun-24 13:28N 27°57' W 082°27'0 0.0
2017-Jun-24 12:58N 27°57' W 082°27'0 0.0
2017-Jun-24 12:30N 27°57' W 082°27'0 0.0
2017-Jun-24 12:00N 27°57' W 082°27'0 0.0
2017-Jun-24 11:30N 27°57' W 082°27'1 1.4
2017-Jun-24 11:00N 27°56' W 082°27'2 4.0
2017-Jun-24 10:30N 27°54' W 082°26'5 9.3
2017-Jun-24 10:00N 27°49' W 082°27'612.3
2017-Jun-24 09:30N 27°45' W 082°32'714.2
2017-Jun-24 09:00N 27°39' W 082°37'48615.7
2017-Jun-23 02:06N 20°36' W 086°58'218.5
2017-Jun-23 02:00N 20°34' W 086°59'510.6
2017-Jun-23 01:30N 20°29' W 086°59'0 0.5
2017-Jun-23 00:58N 20°29' W 086°59'0 0.0
2017-Jun-23 00:28N 20°29' W 086°59'0 0.0
2017-Jun-22 23:58N 20°29' W 086°59'0 0.0
2017-Jun-22 23:28N 20°29' W 086°59'0 0.0
2017-Jun-22 23:00N 20°29' W 086°59'0 0.0
2017-Jun-22 22:30N 20°29' W 086°59'0 0.0
2017-Jun-22 22:00N 20°29' W 086°59'0 0.0
2017-Jun-22 21:30N 20°29' W 086°59'0 0.0
2017-Jun-22 21:00N 20°29' W 086°59'0 0.0
2017-Jun-22 20:26N 20°29' W 086°59'0 0.0
2017-Jun-22 19:59N 20°29' W 086°59'0 0.0
2017-Jun-22 19:29N 20°29' W 086°59'0 0.0
2017-Jun-22 18:59N 20°29' W 086°59'0 0.0
2017-Jun-22 18:29N 20°29' W 086°59'0 0.0
2017-Jun-22 17:58N 20°29' W 086°59'0 0.0
2017-Jun-22 17:28N 20°29' W 086°59'0 0.0
2017-Jun-22 16:55N 20°29' W 086°59'0 0.0
2017-Jun-22 16:28N 20°29' W 086°59'0 0.0
2017-Jun-22 15:57N 20°29' W 086°59'0 0.0
2017-Jun-22 15:30N 20°29' W 086°59'2 3.4
2017-Jun-22 15:00N 20°29' W 087°00'4715.7
2017-Jun-22 12:00N 19°42' W 087°00'92 2.6 130 / 251012.010.8 28.023.929.0
2017-Jun-21 00:00N 20°30' W 085°36'20717.3 150 / 351010.010.8 28.025.328.0
2017-Jun-20 12:00N 23°48' W 084°30'1918.8 120 / 401010.010.8 28.025.328.0
2017-Jun-20 11:00N 24°06' W 084°24'15419.2 140 / 451010.010.8 28.025.328.0
2017-Jun-20 03:00N 26°30' W 083°24'7816.8 100 / 301014.2 5.4 27.025.728.0
2017-Jun-19 22:21N 27°37' W 082°39'515.7
2017-Jun-19 22:00N 27°41' W 082°35'714.1
2017-Jun-19 21:31N 27°47' W 082°31'612.6
2017-Jun-19 21:01N 27°52' W 082°27'4 7.5
2017-Jun-19 20:31N 27°56' W 082°27'1 2.0
2017-Jun-19 19:59N 27°57' W 082°27'0 0.0
2017-Jun-19 19:29N 27°57' W 082°27'0 0.0
2017-Jun-19 18:59N 27°57' W 082°27'0 0.0
2017-Jun-19 18:29N 27°57' W 082°27'0 0.0
2017-Jun-19 17:59N 27°57' W 082°27'0 0.0
2017-Jun-19 17:29N 27°57' W 082°27'0 0.0
2017-Jun-19 16:59N 27°57' W 082°27'0 0.0
2017-Jun-19 16:28N 27°57' W 082°27'0 0.0
2017-Jun-19 15:58N 27°57' W 082°27'0 0.0
2017-Jun-19 15:28N 27°57' W 082°27'0 0.0
2017-Jun-19 14:58N 27°57' W 082°27'0 0.0
2017-Jun-19 14:00N 27°57' W 082°27'0 0.0
2017-Jun-19 13:30N 27°57' W 082°27'0 0.0
2017-Jun-19 13:00N 27°57' W 082°27'0 0.0
2017-Jun-19 12:30N 27°57' W 082°27'0 0.0
2017-Jun-19 12:00N 27°57' W 082°27'0 0.4
2017-Jun-19 11:31N 27°56' W 082°27'2 3.6
2017-Jun-19 11:01N 27°55' W 082°27'510.3
2017-Jun-19 10:31N 27°50' W 082°27'611.1
2017-Jun-19 10:01N 27°46' W 082°31'713.7
2017-Jun-19 09:30N 27°40' W 082°36'5910.8
2017-Jun-19 04:00N 26°54' W 083°18'4711.8 160 / 201014.0 5.4 28.023.928.0
2017-Jun-19 00:00N 26°12' W 083°42'6012.1 160 / 251012.010.8 27.022.828.0
2017-Jun-18 19:00N 25°18' W 084°12'5313.2 120 / 281012.010.8 29.025.027.0
2017-Jun-18 15:00N 24°30' W 084°36'27116.6 100 / 311011.9 5.4 29.025.028.0
2017-Jun-17 22:43N 20°33' W 086°58'315.3
2017-Jun-17 22:30N 20°30' W 086°59'2 2.8
2017-Jun-17 21:56N 20°29' W 086°59'0 0.0
2017-Jun-17 21:29N 20°29' W 086°59'0 0.0
2017-Jun-17 20:59N 20°29' W 086°59'0 0.0
2017-Jun-17 20:28N 20°29' W 086°59'0 0.0
2017-Jun-17 19:58N 20°29' W 086°59'0 0.0
2017-Jun-17 19:28N 20°29' W 086°59'0 0.0
2017-Jun-17 18:58N 20°29' W 086°59'0 0.0
2017-Jun-17 18:30N 20°29' W 086°59'0 0.0
2017-Jun-17 18:00N 20°29' W 086°59'0 0.0
2017-Jun-17 17:30N 20°29' W 086°59'0 0.0
2017-Jun-17 17:00N 20°29' W 086°59'0 0.0
2017-Jun-17 16:27N 20°29' W 086°59'0 0.0
2017-Jun-17 15:59N 20°29' W 086°59'0 0.0
2017-Jun-17 15:26N 20°29' W 086°59'0 0.0
2017-Jun-17 14:59N 20°29' W 086°59'0 0.0
2017-Jun-17 14:29N 20°29' W 086°59'0 0.0
2017-Jun-17 13:25N 20°29' W 086°59'0 0.0
2017-Jun-17 12:58N 20°29' W 086°59'0 0.0
2017-Jun-17 12:28N 20°29' W 086°59'0 0.0
2017-Jun-17 11:58N 20°29' W 086°59'0 0.8
2017-Jun-17 11:30N 20°29' W 086°59'4 8.6
2017-Jun-17 11:01N 20°33' W 086°57'35713.2
2017-Jun-16 08:00N 25°48' W 083°54'12914.8 190 / 81016.7 5.4 27.024.326.0
2017-Jun-15 23:19N 27°38' W 082°39'515.7
2017-Jun-15 23:01N 27°41' W 082°35'714.3
2017-Jun-15 22:31N 27°47' W 082°31'713.1
2017-Jun-15 22:01N 27°52' W 082°27'4 8.0
2017-Jun-15 21:31N 27°56' W 082°27'0 0.6
2017-Jun-15 20:58N 27°57' W 082°27'0 0.0
2017-Jun-15 20:28N 27°57' W 082°27'0 0.0
2017-Jun-15 19:58N 27°57' W 082°27'0 0.0
2017-Jun-15 19:28N 27°57' W 082°27'0 0.0
2017-Jun-15 18:58N 27°57' W 082°27'0 0.0
2017-Jun-15 18:30N 27°57' W 082°27'0 0.0
2017-Jun-15 18:00N 27°57' W 082°27'0 0.0
2017-Jun-15 17:27N 27°57' W 082°27'0 0.0
2017-Jun-15 17:00N 27°57' W 082°27'0 0.0
2017-Jun-15 16:26N 27°57' W 082°27'0 0.0
2017-Jun-15 15:59N 27°57' W 082°27'0 0.0
2017-Jun-15 15:29N 27°57' W 082°27'0 0.0
2017-Jun-15 14:59N 27°57' W 082°27'0 0.0
2017-Jun-15 13:58N 27°57' W 082°27'0 0.0
2017-Jun-15 13:28N 27°57' W 082°27'0 0.0
2017-Jun-15 12:58N 27°57' W 082°27'0 0.0
2017-Jun-15 12:28N 27°57' W 082°27'0 0.0
2017-Jun-15 12:00N 27°57' W 082°27'0 0.4
2017-Jun-15 11:30N 27°57' W 082°27'1 2.0
2017-Jun-15 11:00N 27°56' W 082°27'3 6.3
2017-Jun-15 10:30N 27°52' W 082°26'611.5
2017-Jun-15 10:00N 27°48' W 082°30'612.7
2017-Jun-15 09:30N 27°42' W 082°33'815.2
2017-Jun-15 09:00N 27°37' W 082°40'1015.7
2017-Jun-15 08:21N 27°36' W 082°52'515.0
2017-Jun-15 08:00N 27°36' W 082°57'  

Dump ship's entire track history